CST,Max TemperatureF,Mean TemperatureF,Min TemperatureF,Max Dew PointF,MeanDew PointF,Min DewpointF,Max Humidity, Mean Humidity, Min Humidity, Max Sea Level PressureIn, Mean Sea Level PressureIn, Min Sea Level PressureIn, Max VisibilityMiles, Mean VisibilityMiles, Min VisibilityMiles, Max Wind SpeedMPH, Mean Wind SpeedMPH, Max Gust SpeedMPH,PrecipitationIn, CloudCover, Events, WindDirDegrees
2013-2-1,5,0,-5,0,-7,-12,78,67,52,30.19,30.09,29.90,10,10,10,9,6,,0.00,4,,283
2013-2-2,12,0,-11,-4,-8,-16,83,67,45,30.15,30.08,29.98,10,10,10,9,4,,0.00,2,,318
2013-2-3,12,4,-4,1,-3,-9,83,68,51,30.01,29.91,29.79,10,8,2,21,7,34,0.00,5,Snow,302
2013-2-4,15,0,-15,-1,-9,-21,87,71,45,30.04,29.98,29.89,10,9,2,9,1,,0.00,1,,330
2013-2-5,21,7,-7,13,4,-12,92,77,60,30.08,29.78,29.62,10,7,1,17,4,24,0.00,8,Snow,303
2013-2-6,24,9,-6,18,10,-10,93,82,48,30.22,30.14,30.08,10,6,1,8,3,,0.00,6,Snow,147
2013-2-7,24,22,19,21,18,14,93,88,81,30.23,30.14,30.06,10,5,2,16,6,25,0.01,8,Snow,28
2013-2-8,26,13,0,12,7,-3,88,75,51,30.41,30.34,30.17,10,10,9,12,7,,0.00,1,,344
2013-2-9,21,7,-7,20,8,-12,93,84,75,30.40,30.24,30.06,10,10,6,17,4,25,0.00,6,,169
2013-2-10,33,27,21,33,27,20,100,92,86,30.09,29.68,29.32,7,3,0,17,7,28,0.16,8,Fog-Rain-Snow,118
2013-2-11,34,28,21,34,29,17,100,90,69,29.86,29.38,29.22,10,5,0,26,6,34,0.00,8,Fog-Rain-Snow,250
2013-2-12,25,20,12,17,14,10,92,76,65,29.97,29.88,29.76,10,10,6,12,8,17,0.00,5,Snow,262
2013-2-13,39,24,9,26,20,6,92,78,55,29.75,29.66,29.62,10,9,7,5,1,,0.00,5,,279
2013-2-14,30,22,14,27,22,7,93,84,69,29.99,29.68,29.58,10,5,1,18,5,25,0.00,8,Snow,357
2013-2-15,19,10,0,10,3,-6,92,73,53,30.20,30.10,30.00,10,10,8,12,7,21,0.00,6,,321
2013-2-16,15,4,-9,2,-4,-14,91,70,49,30.21,30.16,30.12,10,10,10,15,3,20,0.00,3,,330
2013-2-17,21,2,-18,3,-6,-23,83,63,40,30.22,30.13,29.97,10,10,5,10,2,,0.00,2,,165
2013-2-18,37,26,15,30,23,4,93,78,59,29.95,29.58,29.37,10,8,2,16,7,25,0.00,6,Snow,158
2013-2-19,28,18,9,27,9,0,93,73,58,30.07,29.61,29.35,10,4,1,32,21,45,0.00,8,Snow,319
2013-2-20,19,12,6,7,3,1,80,68,57,30.44,30.29,30.00,10,9,3,26,18,36,0.00,4,,330
2013-2-21,25,16,6,19,13,2,93,81,66,30.50,30.38,30.23,10,10,9,13,7,18,0.00,8,,10
2013-2-22,24,20,17,20,19,16,96,89,80,30.25,29.90,29.75,10,4,0,12,6,18,0.02,8,Fog-Snow,39
2013-2-23,30,18,6,27,19,3,100,87,74,29.87,29.76,29.70,10,7,2,10,3,,0.00,7,Snow,302
2013-2-24,34,28,21,22,20,17,86,70,56,30.11,30.03,29.89,10,10,10,12,6,,0.00,6,,315
2013-2-25,35,26,16,26,20,14,93,77,61,30.15,30.12,30.07,10,10,2,8,1,,0.00,7,,164
2013-2-26,33,29,25,27,24,21,89,77,66,30.11,30.00,29.84,10,10,9,14,4,21,0.00,8,,51
2013-2-27,32,30,28,28,26,21,93,84,74,29.86,29.77,29.72,10,4,1,17,13,25,0.00,8,Snow,10
2013-2-28,30,26,21,25,19,14,86,75,61,30.19,30.05,29.88,10,9,5,23,17,32,0.00,8,Snow,3